createdAt,value
2024-01-16T00:00:17.700Z,22.56
2024-01-16T00:01:21.740Z,22.56
2024-01-16T00:02:25.521Z,22.57
2024-01-16T00:03:29.597Z,22.57
2024-01-16T00:04:35.610Z,22.57
2024-01-16T00:05:38.520Z,22.57
2024-01-16T00:06:42.859Z,22.57
2024-01-16T00:07:46.529Z,22.57
2024-01-16T00:08:49.329Z,22.57
2024-01-16T00:09:54.553Z,22.57
2024-01-16T00:10:58.421Z,22.57
2024-01-16T00:12:03.241Z,22.58
2024-01-16T00:13:06.726Z,22.58
2024-01-16T00:14:21.211Z,22.58
2024-01-16T00:15:24.370Z,22.58
2024-01-16T00:16:28.034Z,22.59
2024-01-16T00:17:30.835Z,22.59
2024-01-16T00:18:34.652Z,22.61
2024-01-16T00:19:37.682Z,22.62
2024-01-16T00:20:42.228Z,22.62
2024-01-16T00:21:49.535Z,22.62
2024-01-16T00:22:52.335Z,22.62
2024-01-16T00:23:55.089Z,22.62
2024-01-16T00:24:58.478Z,22.59
2024-01-16T00:26:02.158Z,22.59
2024-01-16T00:27:07.543Z,22.61
2024-01-16T00:28:11.200Z,22.59
2024-01-16T00:29:14.467Z,22.61
2024-01-16T00:30:18.544Z,22.61
2024-01-16T00:31:22.512Z,22.60
2024-01-16T00:32:26.091Z,22.61
2024-01-16T00:33:29.933Z,22.62
2024-01-16T00:34:33.009Z,22.62
2024-01-16T00:35:36.349Z,22.62
2024-01-16T00:36:39.722Z,22.61
2024-01-16T00:37:42.582Z,22.62
2024-01-16T00:38:46.628Z,22.62
2024-01-16T00:39:49.810Z,22.61
2024-01-16T00:40:53.513Z,22.61
2024-01-16T00:41:56.250Z,22.61
2024-01-16T00:42:58.962Z,22.62
2024-01-16T00:44:02.262Z,22.62
2024-01-16T00:45:06.553Z,22.62
2024-01-16T00:46:10.209Z,22.61
2024-01-16T00:47:12.952Z,22.62
2024-01-16T00:48:16.585Z,22.62
2024-01-16T00:49:22.004Z,22.60
2024-01-16T00:50:26.095Z,22.61
2024-01-16T00:51:28.970Z,22.61
2024-01-16T00:52:32.366Z,22.61
2024-01-16T00:53:40.926Z,22.59
2024-01-16T00:54:43.985Z,22.60
2024-01-16T00:55:47.820Z,22.59
2024-01-16T00:56:53.811Z,22.60
2024-01-16T00:57:57.695Z,22.59
2024-01-16T00:59:02.004Z,22.58
2024-01-16T01:00:06.648Z,22.58
2024-01-16T01:01:10.284Z,22.58
2024-01-16T01:02:14.569Z,22.58
2024-01-16T01:03:17.925Z,22.57
2024-01-16T01:04:21.983Z,22.58
2024-01-16T01:05:27.398Z,22.57
2024-01-16T01:06:30.372Z,22.57
2024-01-16T01:07:35.820Z,22.57
2024-01-16T01:08:38.592Z,22.57
2024-01-16T01:09:42.187Z,22.57
2024-01-16T01:10:45.194Z,22.57
2024-01-16T01:12:00.997Z,22.57
2024-01-16T01:13:04.693Z,22.57
2024-01-16T01:14:07.675Z,22.56
2024-01-16T01:15:11.279Z,22.56
2024-01-16T01:16:14.807Z,22.56
2024-01-16T01:17:18.042Z,22.57
2024-01-16T01:18:21.349Z,22.56
2024-01-16T01:19:24.554Z,22.57
2024-01-16T01:20:29.169Z,22.56
2024-01-16T01:21:31.921Z,22.56
2024-01-16T01:22:37.956Z,22.57
2024-01-16T01:23:40.916Z,22.56
2024-01-16T01:24:43.663Z,22.57
2024-01-16T01:25:46.909Z,22.57
2024-01-16T01:26:49.912Z,22.57
2024-01-16T01:27:52.934Z,22.58
2024-01-16T01:28:57.380Z,22.57
2024-01-16T01:30:00.670Z,22.57
2024-01-16T01:31:03.723Z,22.57
2024-01-16T01:32:08.681Z,22.57
2024-01-16T01:34:25.267Z,22.67
2024-01-16T01:35:29.606Z,22.57
2024-01-16T01:36:32.421Z,22.57
2024-01-16T01:38:47.890Z,22.68
2024-01-16T01:39:52.125Z,22.57
2024-01-16T01:40:55.992Z,22.57
2024-01-16T01:41:59.164Z,22.57
2024-01-16T01:43:22.977Z,22.57
2024-01-16T01:44:26.137Z,22.58
2024-01-16T01:45:29.096Z,22.57
2024-01-16T01:46:33.013Z,22.56
2024-01-16T01:47:35.876Z,22.57
2024-01-16T01:48:40.707Z,22.57
2024-01-16T01:49:43.580Z,22.57
2024-01-16T01:50:47.095Z,22.57
2024-01-16T01:51:50.147Z,22.56
2024-01-16T01:52:52.777Z,22.57
2024-01-16T01:53:55.558Z,22.56
2024-01-16T01:54:59.788Z,22.56
2024-01-16T01:56:04.255Z,22.55
2024-01-16T01:57:09.727Z,22.55
2024-01-16T01:58:13.589Z,22.56
2024-01-16T01:59:18.972Z,22.56
2024-01-16T02:00:22.452Z,22.56
2024-01-16T02:01:26.565Z,22.56
2024-01-16T02:02:30.219Z,22.56
2024-01-16T02:04:48.459Z,22.67
2024-01-16T02:05:52.412Z,22.55
2024-01-16T02:06:58.241Z,22.55
2024-01-16T02:08:01.254Z,22.55
2024-01-16T02:09:06.752Z,22.57
2024-01-16T02:10:11.261Z,22.57
2024-01-16T02:11:15.556Z,22.57
2024-01-16T02:12:18.526Z,22.58
2024-01-16T02:13:23.879Z,22.56
2024-01-16T02:14:26.732Z,22.57
2024-01-16T02:15:29.783Z,22.56
2024-01-16T02:16:38.836Z,22.56
2024-01-16T02:17:42.007Z,22.56
2024-01-16T02:18:44.912Z,22.57
2024-01-16T02:19:48.252Z,22.56
2024-01-16T02:20:53.655Z,22.56
2024-01-16T02:21:59.789Z,22.56
2024-01-16T02:24:16.191Z,22.65
2024-01-16T02:25:19.319Z,22.56
2024-01-16T02:26:23.754Z,22.55
2024-01-16T02:27:27.269Z,22.55
2024-01-16T02:28:30.013Z,22.55
2024-01-16T02:29:32.924Z,22.56
2024-01-16T02:30:36.998Z,22.56
2024-01-16T02:31:39.809Z,22.56
2024-01-16T02:32:43.996Z,22.56
2024-01-16T02:33:46.949Z,22.57
2024-01-16T02:34:51.017Z,22.57
2024-01-16T02:35:53.875Z,22.56
2024-01-16T02:36:56.960Z,22.56
2024-01-16T02:39:13.118Z,22.68
2024-01-16T02:40:17.819Z,22.57
2024-01-16T02:41:21.221Z,22.57
2024-01-16T02:42:24.447Z,22.57
2024-01-16T02:43:28.082Z,22.57
2024-01-16T02:44:31.122Z,22.57
2024-01-16T02:45:35.071Z,22.58
2024-01-16T02:46:39.671Z,22.59
2024-01-16T02:47:43.671Z,22.59
2024-01-16T02:48:47.332Z,22.59
2024-01-16T02:49:51.590Z,22.58
2024-01-16T02:50:54.428Z,22.58
2024-01-16T02:51:57.119Z,22.59
2024-01-16T02:52:59.710Z,22.59
2024-01-16T02:54:03.512Z,22.59
2024-01-16T02:55:19.973Z,22.61
2024-01-16T02:56:23.521Z,22.59
2024-01-16T02:57:26.281Z,22.60
2024-01-16T02:58:30.535Z,22.61
2024-01-16T02:59:33.442Z,22.61
2024-01-16T03:00:37.769Z,22.61
2024-01-16T03:01:40.939Z,22.61
2024-01-16T03:04:06.104Z,22.71
2024-01-16T03:05:10.538Z,22.60
2024-01-16T03:06:22.857Z,22.61
2024-01-16T03:07:26.241Z,22.60
2024-01-16T03:08:29.002Z,22.60
2024-01-16T03:09:33.141Z,22.60
2024-01-16T03:10:36.747Z,22.60
2024-01-16T03:11:39.485Z,22.62
2024-01-16T03:12:43.109Z,22.62
2024-01-16T03:13:46.745Z,22.61
2024-01-16T03:14:50.567Z,22.61
2024-01-16T03:15:53.349Z,22.61
2024-01-16T03:16:56.281Z,22.61
2024-01-16T03:19:16.343Z,22.72
2024-01-16T03:20:19.586Z,22.60
2024-01-16T03:21:22.638Z,22.60
2024-01-16T03:22:26.241Z,22.61
2024-01-16T03:23:30.422Z,22.61
2024-01-16T03:24:34.877Z,22.61
2024-01-16T03:25:39.307Z,22.61
2024-01-16T03:26:43.170Z,22.62
2024-01-16T03:27:46.471Z,22.62
2024-01-16T03:28:49.356Z,22.55
2024-01-16T03:29:52.802Z,22.55
2024-01-16T03:30:58.711Z,22.62
2024-01-16T03:32:01.564Z,22.61
2024-01-16T03:33:05.616Z,22.61
2024-01-16T03:34:10.286Z,22.61
2024-01-16T03:35:13.179Z,22.62
2024-01-16T03:36:17.225Z,22.62
2024-01-16T03:37:20.262Z,22.61
2024-01-16T03:38:23.043Z,22.61
2024-01-16T03:39:26.061Z,22.62
2024-01-16T03:40:29.437Z,22.61
2024-01-16T03:41:32.463Z,22.61
2024-01-16T03:42:36.096Z,22.61
2024-01-16T03:43:38.742Z,22.62
2024-01-16T03:44:41.948Z,22.62
2024-01-16T03:45:44.662Z,22.63
2024-01-16T03:46:47.704Z,22.62
2024-01-16T03:47:50.876Z,22.63
2024-01-16T03:48:53.996Z,22.63
2024-01-16T03:49:56.512Z,22.57
2024-01-16T03:50:59.242Z,22.57
2024-01-16T03:52:02.196Z,22.63
2024-01-16T03:53:05.163Z,22.63
2024-01-16T03:54:08.309Z,22.62
2024-01-16T03:55:11.656Z,22.61
2024-01-16T03:56:17.322Z,22.61
2024-01-16T03:57:20.124Z,22.61
2024-01-16T03:58:23.495Z,22.61
2024-01-16T03:59:26.185Z,22.61
2024-01-16T04:00:29.091Z,22.61
2024-01-16T04:01:34.569Z,22.61
2024-01-16T04:02:38.444Z,22.62
2024-01-16T04:03:42.547Z,22.62
2024-01-16T04:04:45.909Z,22.62
2024-01-16T04:05:49.245Z,22.61
2024-01-16T04:06:52.334Z,22.61
2024-01-16T04:07:55.396Z,22.61
2024-01-16T04:08:58.658Z,22.60
2024-01-16T04:10:02.158Z,22.61
2024-01-16T04:11:06.143Z,22.61
2024-01-16T04:12:10.252Z,22.61
2024-01-16T04:13:13.198Z,22.61
2024-01-16T04:14:17.693Z,22.62
2024-01-16T04:15:23.609Z,22.61
2024-01-16T04:16:27.393Z,22.62
2024-01-16T04:17:30.926Z,22.63
2024-01-16T04:19:51.990Z,22.74
2024-01-16T04:20:55.061Z,22.64
2024-01-16T04:21:57.774Z,22.65
2024-01-16T04:23:00.918Z,22.67
2024-01-16T04:24:04.555Z,22.67
2024-01-16T04:25:09.105Z,22.68
2024-01-16T04:26:13.586Z,22.67
2024-01-16T04:27:16.256Z,22.67
2024-01-16T04:28:19.987Z,22.67
2024-01-16T04:29:23.134Z,22.67
2024-01-16T04:30:26.919Z,22.67
2024-01-16T04:31:31.796Z,22.70
2024-01-16T04:32:36.067Z,22.70
2024-01-16T04:33:39.679Z,22.71
2024-01-16T04:34:42.866Z,22.71
2024-01-16T04:35:45.802Z,22.71
2024-01-16T04:36:48.980Z,22.71
2024-01-16T04:37:52.583Z,22.72
2024-01-16T04:39:00.903Z,22.73
2024-01-16T04:40:04.085Z,22.73
2024-01-16T04:41:07.325Z,22.74
2024-01-16T04:42:10.141Z,22.73
2024-01-16T04:43:14.794Z,22.73
2024-01-16T04:44:18.421Z,22.73
2024-01-16T04:45:21.928Z,22.71
2024-01-16T04:46:26.110Z,22.71
2024-01-16T04:47:28.888Z,22.70
2024-01-16T04:48:31.788Z,22.71
2024-01-16T04:49:35.879Z,22.70
2024-01-16T04:50:40.757Z,22.68
2024-01-16T04:51:43.558Z,22.69
2024-01-16T04:52:47.394Z,22.66
2024-01-16T04:53:51.743Z,22.66
2024-01-16T04:54:54.766Z,22.65
2024-01-16T04:55:57.609Z,22.64
2024-01-16T04:57:00.891Z,22.64
2024-01-16T04:58:04.883Z,22.64
2024-01-16T04:59:07.573Z,22.62
2024-01-16T05:00:12.186Z,22.62
2024-01-16T05:01:15.130Z,22.61
2024-01-16T05:02:18.921Z,22.60
2024-01-16T05:03:22.845Z,22.59
2024-01-16T05:04:25.818Z,22.59
2024-01-16T05:05:30.438Z,22.60
2024-01-16T05:06:33.585Z,22.61
2024-01-16T05:07:36.903Z,22.62
2024-01-16T05:08:40.088Z,22.61
2024-01-16T05:09:44.846Z,22.61
2024-01-16T05:10:48.641Z,22.62
2024-01-16T05:11:51.571Z,22.63
2024-01-16T05:12:54.385Z,22.63
2024-01-16T05:13:58.823Z,22.65
2024-01-16T05:15:01.601Z,22.66
2024-01-16T05:16:06.640Z,22.66
2024-01-16T05:17:11.132Z,22.68
2024-01-16T05:18:13.994Z,22.68
2024-01-16T05:19:17.872Z,22.68
2024-01-16T05:20:22.901Z,22.68
2024-01-16T05:21:25.889Z,22.67
2024-01-16T05:22:29.272Z,22.67
2024-01-16T05:23:33.181Z,22.66
2024-01-16T05:24:36.570Z,22.66
2024-01-16T05:25:39.687Z,22.65
2024-01-16T05:26:43.296Z,22.65
2024-01-16T05:27:46.103Z,22.65
2024-01-16T05:28:49.255Z,22.64
2024-01-16T05:29:53.499Z,22.64
2024-01-16T05:30:56.964Z,22.62
2024-01-16T05:32:00.811Z,22.62
2024-01-16T05:33:05.214Z,22.63
2024-01-16T05:34:09.796Z,22.63
2024-01-16T05:35:12.796Z,22.63
2024-01-16T05:36:16.676Z,22.63
2024-01-16T05:37:20.020Z,22.62
2024-01-16T05:38:22.930Z,22.62
2024-01-16T05:39:26.437Z,22.62
2024-01-16T05:40:29.689Z,22.62
2024-01-16T05:41:36.702Z,22.61
2024-01-16T05:42:39.837Z,22.61
2024-01-16T05:43:42.589Z,22.61
2024-01-16T05:44:45.950Z,22.61
2024-01-16T05:45:51.117Z,22.61
2024-01-16T05:46:54.000Z,22.62
2024-01-16T05:47:57.423Z,22.63
2024-01-16T05:49:00.891Z,22.62
2024-01-16T05:50:05.251Z,22.62
2024-01-16T05:51:08.433Z,22.61
2024-01-16T05:52:11.432Z,22.58
2024-01-16T05:53:14.287Z,22.56
2024-01-16T05:54:17.747Z,22.55
2024-01-16T05:55:22.166Z,22.55
2024-01-16T05:56:25.717Z,22.53
2024-01-16T05:57:44.012Z,22.53
2024-01-16T05:58:50.592Z,22.50
2024-01-16T05:59:54.305Z,22.48
2024-01-16T06:00:58.250Z,22.46
2024-01-16T06:02:01.984Z,22.44
2024-01-16T06:03:07.558Z,22.42
2024-01-16T06:04:13.528Z,22.41
2024-01-16T06:05:15.007Z,22.38
2024-01-16T06:06:19.786Z,22.32
2024-01-16T06:07:22.663Z,22.32
2024-01-16T06:08:27.272Z,22.30
2024-01-16T06:09:32.837Z,22.25
2024-01-16T06:10:36.338Z,22.23
2024-01-16T06:11:41.053Z,22.22
2024-01-16T06:12:44.425Z,22.19
2024-01-16T06:13:47.047Z,22.18
2024-01-16T06:14:52.427Z,22.16
2024-01-16T06:15:55.747Z,22.14
2024-01-16T06:16:59.744Z,22.13
2024-01-16T06:19:15.342Z,22.18
2024-01-16T06:20:21.530Z,22.06
2024-01-16T06:21:25.335Z,22.05
2024-01-16T06:22:29.011Z,22.04
2024-01-16T06:23:32.381Z,22.02
2024-01-16T06:24:38.123Z,22.04
2024-01-16T06:25:42.516Z,22.02
2024-01-16T06:26:46.104Z,22.02
2024-01-16T06:27:50.772Z,22.01
2024-01-16T06:28:53.454Z,21.98
2024-01-16T06:29:56.718Z,21.96
2024-01-16T06:30:59.655Z,21.95
2024-01-16T06:32:02.353Z,21.93
2024-01-16T06:33:05.420Z,21.91
2024-01-16T06:35:24.091Z,22.00
2024-01-16T06:36:27.220Z,21.87
2024-01-16T06:37:30.342Z,21.85
2024-01-16T06:38:34.432Z,21.83
2024-01-16T06:39:38.400Z,21.82
2024-01-16T06:40:43.758Z,21.80
2024-01-16T06:41:46.737Z,21.79
2024-01-16T06:42:50.393Z,21.78
2024-01-16T06:43:54.052Z,21.73
2024-01-16T06:44:56.972Z,21.74
2024-01-16T06:45:59.676Z,21.73
2024-01-16T06:47:02.721Z,21.72
2024-01-16T06:48:05.936Z,21.73
2024-01-16T06:49:16.276Z,21.72
2024-01-16T06:50:20.283Z,21.72
2024-01-16T06:51:24.568Z,21.69
2024-01-16T06:52:27.398Z,21.67
2024-01-16T06:53:31.379Z,21.67
2024-01-16T06:54:34.504Z,21.67
2024-01-16T06:55:38.314Z,21.67
2024-01-16T06:56:42.058Z,21.67
2024-01-16T06:57:46.880Z,21.67
2024-01-16T06:58:50.401Z,21.67
2024-01-16T06:59:54.000Z,21.67
2024-01-16T07:00:58.872Z,21.67
2024-01-16T07:02:02.615Z,21.68
2024-01-16T07:03:05.872Z,21.67
2024-01-16T07:04:09.158Z,21.68
2024-01-16T07:05:13.316Z,21.67
2024-01-16T07:06:16.654Z,21.67
2024-01-16T07:07:20.271Z,21.67
2024-01-16T07:08:23.851Z,21.68
2024-01-16T07:09:27.898Z,21.68
2024-01-16T07:10:30.993Z,21.69
2024-01-16T07:11:33.980Z,21.69
2024-01-16T07:12:37.495Z,21.70
2024-01-16T07:13:41.510Z,21.72
2024-01-16T07:14:45.249Z,21.70
2024-01-16T07:15:47.910Z,21.68
2024-01-16T07:16:51.858Z,21.65
2024-01-16T07:17:55.825Z,21.64
2024-01-16T07:19:00.195Z,21.63
2024-01-16T07:20:04.442Z,21.63
2024-01-16T07:21:22.650Z,21.65
2024-01-16T07:22:25.933Z,21.66
2024-01-16T07:23:29.410Z,21.68
2024-01-16T07:24:32.827Z,21.67
2024-01-16T07:25:38.146Z,21.68
2024-01-16T07:26:42.861Z,21.67
2024-01-16T07:27:48.019Z,21.67
2024-01-16T07:28:50.757Z,21.67
2024-01-16T07:29:55.111Z,21.65
2024-01-16T07:30:58.922Z,21.67
2024-01-16T07:32:02.987Z,21.67
2024-01-16T07:33:06.163Z,21.66
2024-01-16T07:34:09.160Z,21.65
2024-01-16T07:35:14.011Z,21.64
2024-01-16T07:36:18.061Z,21.65
2024-01-16T07:37:20.814Z,21.63
2024-01-16T07:38:23.963Z,21.61
2024-01-16T07:39:27.792Z,21.58
2024-01-16T07:40:30.788Z,21.57
2024-01-16T07:41:33.969Z,21.57
2024-01-16T07:42:36.703Z,21.58
2024-01-16T07:43:39.900Z,21.54
2024-01-16T07:44:44.046Z,21.54
2024-01-16T07:45:46.841Z,21.52
2024-01-16T07:46:50.470Z,21.49
2024-01-16T07:47:54.988Z,21.46
2024-01-16T07:48:59.216Z,21.43
2024-01-16T07:50:05.241Z,21.37
2024-01-16T07:51:07.275Z,21.30
2024-01-16T07:52:11.667Z,21.27
2024-01-16T07:53:15.864Z,21.22
2024-01-16T07:54:18.582Z,21.15
2024-01-16T07:55:24.413Z,21.10
2024-01-16T07:56:44.433Z,21.06
2024-01-16T07:57:47.111Z,21.01
2024-01-16T07:58:50.136Z,21.01
2024-01-16T07:59:52.778Z,21.02
2024-01-16T08:00:56.919Z,21.04
2024-01-16T08:02:00.697Z,21.05
2024-01-16T08:03:04.665Z,21.05
2024-01-16T08:04:07.969Z,21.01
2024-01-16T08:05:11.295Z,20.96
2024-01-16T08:06:15.704Z,20.93
2024-01-16T08:07:20.312Z,20.91
2024-01-16T08:08:23.681Z,20.92
2024-01-16T08:09:28.146Z,20.91
2024-01-16T08:10:31.470Z,20.90
2024-01-16T08:11:36.274Z,20.89
2024-01-16T08:12:40.643Z,20.88
2024-01-16T08:13:45.694Z,20.86
2024-01-16T08:14:49.562Z,20.75
2024-01-16T08:15:52.956Z,20.63
2024-01-16T08:16:57.357Z,20.55
2024-01-16T08:18:02.227Z,20.52
2024-01-16T08:19:06.628Z,20.48
2024-01-16T08:20:11.765Z,20.44
2024-01-16T08:21:15.569Z,20.42
2024-01-16T08:22:18.804Z,20.38
2024-01-16T08:23:23.462Z,20.35
2024-01-16T08:24:26.146Z,20.37
2024-01-16T08:25:29.409Z,20.35
2024-01-16T08:26:33.261Z,20.32
2024-01-16T08:27:38.689Z,20.25
2024-01-16T08:28:42.681Z,20.23
2024-01-16T08:29:46.188Z,20.17
2024-01-16T08:30:49.249Z,20.05
2024-01-16T08:31:53.387Z,19.99
2024-01-16T08:32:56.903Z,19.99
2024-01-16T08:33:59.921Z,20.04
2024-01-16T08:35:03.435Z,20.06
2024-01-16T08:36:07.324Z,20.08
2024-01-16T08:37:11.154Z,20.07
2024-01-16T08:38:14.557Z,20.06
2024-01-16T08:39:17.772Z,20.07
2024-01-16T08:40:21.299Z,20.08
2024-01-16T08:41:24.370Z,20.12
2024-01-16T08:42:27.482Z,20.16
2024-01-16T08:43:30.174Z,20.16
2024-01-16T08:44:34.277Z,20.13
2024-01-16T08:45:37.797Z,20.10
2024-01-16T08:46:40.694Z,20.07
2024-01-16T08:47:44.475Z,20.07
2024-01-16T08:48:48.115Z,20.07
2024-01-16T08:49:51.498Z,20.07
2024-01-16T08:50:54.804Z,20.07
2024-01-16T08:51:59.870Z,20.05
2024-01-16T08:53:03.782Z,20.05
2024-01-16T08:54:06.834Z,20.05
2024-01-16T08:55:11.175Z,20.06
2024-01-16T08:56:14.644Z,20.03
2024-01-16T08:57:18.536Z,19.99
2024-01-16T08:58:21.814Z,19.95
2024-01-16T08:59:25.152Z,19.95
2024-01-16T09:00:28.986Z,19.98
2024-01-16T09:01:32.064Z,19.98
2024-01-16T09:02:35.960Z,19.98
2024-01-16T09:03:38.805Z,19.97
2024-01-16T09:04:43.150Z,19.98
2024-01-16T09:05:46.664Z,20.01
2024-01-16T09:06:49.805Z,20.04
2024-01-16T09:07:53.917Z,20.08
2024-01-16T09:08:57.940Z,20.11
2024-01-16T09:10:04.564Z,20.16
2024-01-16T09:11:09.194Z,20.21
2024-01-16T09:12:12.113Z,20.22
2024-01-16T09:13:14.827Z,20.20
2024-01-16T09:14:18.597Z,20.06
2024-01-16T09:15:22.245Z,20.06
2024-01-16T09:16:25.677Z,20.09
2024-01-16T09:17:28.879Z,20.07
2024-01-16T09:18:31.995Z,20.03
2024-01-16T09:19:35.792Z,19.99
2024-01-16T09:20:39.541Z,19.98
2024-01-16T09:21:42.361Z,19.97
2024-01-16T09:22:46.745Z,19.95
2024-01-16T09:23:50.049Z,19.94
2024-01-16T09:24:54.277Z,19.91
2024-01-16T09:25:56.907Z,19.84
2024-01-16T09:27:00.672Z,19.83
2024-01-16T09:28:03.844Z,19.85
2024-01-16T09:29:09.452Z,19.82
2024-01-16T09:30:25.519Z,19.83
2024-01-16T09:31:28.981Z,19.86
2024-01-16T09:32:32.766Z,19.85
2024-01-16T09:33:37.099Z,19.83
2024-01-16T09:34:40.327Z,19.80
2024-01-16T09:35:43.654Z,19.76
2024-01-16T09:36:47.072Z,19.75
2024-01-16T09:37:50.219Z,19.74
2024-01-16T09:38:52.952Z,19.74
2024-01-16T09:39:57.243Z,19.77
2024-01-16T09:41:00.627Z,19.82
2024-01-16T09:42:04.949Z,19.84
2024-01-16T09:43:10.988Z,19.82
2024-01-16T09:44:14.960Z,19.76
2024-01-16T09:45:22.314Z,19.70
2024-01-16T09:46:25.815Z,19.64
2024-01-16T09:47:28.996Z,19.60
2024-01-16T09:48:33.773Z,19.53
2024-01-16T09:49:40.469Z,19.47
2024-01-16T09:50:44.164Z,19.42
2024-01-16T09:51:48.697Z,19.37
2024-01-16T09:52:52.930Z,19.37
2024-01-16T09:53:58.042Z,19.42
2024-01-16T09:55:01.313Z,19.47
2024-01-16T09:56:05.908Z,19.52
2024-01-16T09:57:09.952Z,19.53
2024-01-16T09:58:14.923Z,19.56
2024-01-16T09:59:21.502Z,19.58
2024-01-16T10:00:26.989Z,19.57
2024-01-16T10:01:31.653Z,19.52
2024-01-16T10:02:35.208Z,19.39
2024-01-16T10:03:39.704Z,19.30
2024-01-16T10:04:42.795Z,19.27
2024-01-16T10:05:46.527Z,19.28
2024-01-16T10:06:50.341Z,19.31
2024-01-16T10:07:54.882Z,19.35
2024-01-16T10:08:57.946Z,19.35
2024-01-16T10:10:01.675Z,19.32
2024-01-16T10:11:06.258Z,19.29
2024-01-16T10:12:11.936Z,19.27
2024-01-16T10:13:15.060Z,19.22
2024-01-16T10:14:18.551Z,19.13
2024-01-16T10:15:22.043Z,19.08
2024-01-16T10:16:59.095Z,19.06
2024-01-16T10:18:01.962Z,19.02
2024-01-16T10:19:06.192Z,18.95
2024-01-16T10:20:15.145Z,18.91
2024-01-16T10:21:22.780Z,18.86
2024-01-16T10:22:27.626Z,18.87
2024-01-16T10:23:33.686Z,18.89
2024-01-16T10:24:37.965Z,18.90
2024-01-16T10:25:40.717Z,18.89
2024-01-16T10:26:43.816Z,18.92
2024-01-16T10:27:46.961Z,18.92
2024-01-16T10:28:51.425Z,18.90
2024-01-16T10:32:32.131Z,18.98
2024-01-16T10:33:38.920Z,18.84
2024-01-16T10:34:40.371Z,18.80
2024-01-16T10:35:44.470Z,18.78
2024-01-16T10:36:49.113Z,18.70
2024-01-16T10:37:54.016Z,18.69
2024-01-16T10:39:01.081Z,18.69
2024-01-16T10:40:07.805Z,18.70
2024-01-16T10:41:12.389Z,18.73
2024-01-16T10:42:15.179Z,18.76
2024-01-16T10:43:18.506Z,18.79
2024-01-16T10:44:22.753Z,18.84
2024-01-16T10:45:26.036Z,18.87
2024-01-16T10:46:29.178Z,18.85
2024-01-16T10:47:35.370Z,18.78
2024-01-16T10:48:40.529Z,18.71
2024-01-16T10:49:46.619Z,18.66
2024-01-16T10:50:49.920Z,18.63
2024-01-16T10:51:52.583Z,18.63
2024-01-16T10:52:56.250Z,18.62
2024-01-16T10:54:00.691Z,18.60
2024-01-16T10:55:05.440Z,18.63
2024-01-16T10:56:16.410Z,18.63
2024-01-16T10:57:20.691Z,18.69
2024-01-16T10:58:24.248Z,18.74
2024-01-16T10:59:29.505Z,18.80
2024-01-16T11:00:32.506Z,18.81
2024-01-16T11:01:52.362Z,18.81
2024-01-16T11:03:07.840Z,18.79
2024-01-16T11:04:15.926Z,18.81
2024-01-16T11:05:21.047Z,18.77
2024-01-16T11:06:27.190Z,18.76
2024-01-16T11:07:29.984Z,18.75
2024-01-16T11:08:34.529Z,18.79
2024-01-16T11:09:38.462Z,18.85
2024-01-16T11:10:42.271Z,18.90
2024-01-16T11:11:46.614Z,18.91
2024-01-16T11:12:49.639Z,18.91
2024-01-16T11:13:53.154Z,18.91
2024-01-16T11:14:56.644Z,18.95
2024-01-16T11:16:00.819Z,18.99
2024-01-16T11:17:04.748Z,19.03
2024-01-16T11:18:07.946Z,19.09
2024-01-16T11:19:25.667Z,19.14
2024-01-16T11:20:37.973Z,19.17
2024-01-16T11:21:26.742Z,19.17
2024-01-16T11:22:31.133Z,19.19
2024-01-16T11:23:36.361Z,19.19
2024-01-16T11:24:40.177Z,19.16
2024-01-16T11:25:42.979Z,19.15
2024-01-16T11:26:46.234Z,19.16
2024-01-16T11:27:51.478Z,19.14
2024-01-16T11:28:57.045Z,19.13
2024-01-16T11:30:01.701Z,19.13
2024-01-16T11:32:41.876Z,19.23
2024-01-16T11:33:44.853Z,19.07
2024-01-16T11:34:52.690Z,18.99
2024-01-16T11:35:55.525Z,19.00
2024-01-16T11:36:59.221Z,19.02
2024-01-16T11:38:13.457Z,19.02
2024-01-16T11:39:20.099Z,19.01
2024-01-16T11:40:25.814Z,18.99
2024-01-16T11:45:06.122Z,19.05
2024-01-16T11:46:10.787Z,18.90
2024-01-16T11:47:18.578Z,18.87
2024-01-16T11:48:22.056Z,18.87
2024-01-16T11:49:24.893Z,18.90
2024-01-16T11:50:29.269Z,18.88
2024-01-16T11:51:32.253Z,18.84
2024-01-16T11:52:45.251Z,18.85
2024-01-16T11:53:49.678Z,18.88
2024-01-16T11:54:52.343Z,18.93
2024-01-16T11:56:34.840Z,18.98
2024-01-16T11:57:41.026Z,18.99
2024-01-16T11:59:22.837Z,18.95
2024-01-16T12:00:25.862Z,18.92
2024-01-16T12:01:28.690Z,18.88
2024-01-16T12:02:41.728Z,18.89
2024-01-16T12:03:45.722Z,18.91
2024-01-16T12:04:59.547Z,18.95
2024-01-16T12:06:06.272Z,18.99
2024-01-16T12:07:09.160Z,19.04
2024-01-16T12:08:14.406Z,19.07
2024-01-16T12:09:18.157Z,19.07
2024-01-16T12:10:22.903Z,19.08
2024-01-16T12:11:33.376Z,19.14
2024-01-16T12:12:31.495Z,19.21
2024-01-16T12:13:35.100Z,19.28
2024-01-16T12:14:37.845Z,19.33
2024-01-16T12:15:40.972Z,19.37
2024-01-16T12:16:43.880Z,19.44
2024-01-16T12:18:00.260Z,19.50
2024-01-16T12:19:09.939Z,19.45
2024-01-16T12:20:19.725Z,19.36
2024-01-16T12:21:22.980Z,19.25
2024-01-16T12:22:25.892Z,19.15
2024-01-16T12:23:30.060Z,19.08
2024-01-16T12:24:33.517Z,19.04
2024-01-16T12:26:00.921Z,19.06
2024-01-16T12:26:43.407Z,19.11
2024-01-16T12:27:46.659Z,19.17
2024-01-16T12:28:59.583Z,19.18
2024-01-16T12:30:08.739Z,19.16
2024-01-16T12:31:13.576Z,19.10
2024-01-16T12:32:18.937Z,19.11
2024-01-16T12:33:25.554Z,19.12
2024-01-16T12:34:28.387Z,19.10
2024-01-16T12:35:32.175Z,19.12
2024-01-16T12:36:37.855Z,19.14
2024-01-16T12:37:41.845Z,19.18
2024-01-16T12:38:45.345Z,19.24
2024-01-16T12:39:49.710Z,19.27
2024-01-16T12:40:52.903Z,19.32
2024-01-16T12:41:56.512Z,19.37
2024-01-16T12:43:00.897Z,19.43
2024-01-16T12:45:18.433Z,19.61
2024-01-16T12:46:22.946Z,19.54
2024-01-16T12:47:26.356Z,19.53
2024-01-16T12:48:30.569Z,19.51
2024-01-16T12:49:33.511Z,19.49
2024-01-16T12:50:38.788Z,19.50
2024-01-16T12:51:42.928Z,19.52
2024-01-16T12:52:47.304Z,19.55
2024-01-16T12:53:50.105Z,19.49
2024-01-16T12:55:05.234Z,19.27
2024-01-16T12:56:11.825Z,19.21
2024-01-16T12:57:21.891Z,19.16
2024-01-16T12:58:27.847Z,19.11
2024-01-16T12:59:31.176Z,19.09
2024-01-16T13:00:35.611Z,19.12
2024-01-16T13:01:46.704Z,19.17
2024-01-16T13:02:51.212Z,19.21
2024-01-16T13:03:54.215Z,19.25
2024-01-16T13:04:59.056Z,19.22
2024-01-16T13:06:05.707Z,19.21
2024-01-16T13:07:09.101Z,19.22
2024-01-16T13:08:19.959Z,19.27
2024-01-16T13:09:23.498Z,19.27
2024-01-16T13:10:27.503Z,19.32
2024-01-16T13:11:38.739Z,19.36
2024-01-16T13:12:39.201Z,19.38
2024-01-16T13:13:43.680Z,19.43
2024-01-16T13:14:46.801Z,19.47
2024-01-16T13:15:51.630Z,19.52
2024-01-16T13:16:57.975Z,19.58
2024-01-16T13:18:00.906Z,19.61
2024-01-16T13:19:06.253Z,19.63
2024-01-16T13:20:11.383Z,19.61
2024-01-16T13:21:14.180Z,19.59
2024-01-16T13:22:17.335Z,19.50
2024-01-16T13:23:20.884Z,19.34
2024-01-16T13:24:24.408Z,19.25
2024-01-16T13:25:28.382Z,19.19
2024-01-16T13:26:33.618Z,19.20
2024-01-16T13:27:37.790Z,19.22
2024-01-16T13:28:40.521Z,19.26
2024-01-16T13:29:45.225Z,19.30
2024-01-16T13:30:49.102Z,19.33
2024-01-16T13:31:53.911Z,19.35
2024-01-16T13:32:56.723Z,19.37
2024-01-16T13:34:00.308Z,19.36
2024-01-16T13:35:07.092Z,19.36
2024-01-16T13:36:12.410Z,19.35
2024-01-16T13:37:19.102Z,19.37
2024-01-16T13:38:25.071Z,19.41
2024-01-16T13:39:28.628Z,19.45
2024-01-16T13:40:32.555Z,19.49
2024-01-16T13:41:35.495Z,19.53
2024-01-16T13:42:40.112Z,19.54
2024-01-16T13:43:44.349Z,19.56
2024-01-16T13:44:48.542Z,19.57
2024-01-16T13:45:52.477Z,19.56
2024-01-16T13:47:05.862Z,19.55
2024-01-16T13:48:07.520Z,19.58
2024-01-16T13:49:11.068Z,19.60
2024-01-16T13:50:16.113Z,19.58
2024-01-16T13:51:20.295Z,19.58
2024-01-16T13:52:25.892Z,19.66
2024-01-16T13:53:28.523Z,19.65
2024-01-16T13:54:32.296Z,19.59
2024-01-16T13:55:35.516Z,19.51
2024-01-16T13:56:52.014Z,19.46
2024-01-16T13:57:44.948Z,19.43
2024-01-16T13:58:47.875Z,19.39
2024-01-16T13:59:51.704Z,19.39
2024-01-16T14:00:55.431Z,19.40
2024-01-16T14:01:58.300Z,19.42
2024-01-16T14:03:03.611Z,19.44
2024-01-16T14:04:07.079Z,19.43
2024-01-16T14:05:15.381Z,19.40
2024-01-16T14:06:41.735Z,19.35
2024-01-16T14:07:24.275Z,19.34
2024-01-16T14:08:28.112Z,19.31
2024-01-16T14:09:35.888Z,19.21
2024-01-16T14:10:39.036Z,19.16